createdAt,value
2024-04-24T00:00:10.869Z,6.54
2024-04-24T00:02:37.854Z,6.42
2024-04-24T00:05:05.840Z,6.53
2024-04-24T00:07:32.802Z,6.67
2024-04-24T00:09:59.903Z,6.76
2024-04-24T00:12:26.585Z,6.63
2024-04-24T00:14:53.283Z,6.58
2024-04-24T00:17:20.155Z,6.57
2024-04-24T00:19:46.969Z,6.43
2024-04-24T00:22:13.760Z,6.70
2024-04-24T00:24:40.508Z,6.81
2024-04-24T00:27:08.192Z,6.89
2024-04-24T00:29:34.896Z,6.84
2024-04-24T00:32:06.954Z,6.77
2024-04-24T00:34:34.532Z,7.01
2024-04-24T00:37:01.471Z,6.75
2024-04-24T00:39:28.203Z,6.65
2024-04-24T00:41:54.970Z,6.89
2024-04-24T00:44:21.789Z,6.62
2024-04-24T00:46:50.408Z,6.76
2024-04-24T00:49:18.044Z,6.83
2024-04-24T00:51:45.767Z,6.78
2024-04-24T00:54:13.728Z,6.74
2024-04-24T00:56:41.967Z,6.73
2024-04-24T00:59:08.948Z,6.60
2024-04-24T01:01:35.714Z,6.74
2024-04-24T01:04:02.466Z,6.63
2024-04-24T01:06:29.397Z,6.84
2024-04-24T01:08:56.149Z,6.81
2024-04-24T01:11:23.081Z,6.80
2024-04-24T01:13:50.213Z,6.86
2024-04-24T01:16:20.392Z,6.94
2024-04-24T01:18:54.597Z,7.09
2024-04-24T01:21:24.632Z,6.73
2024-04-24T01:24:06.283Z,6.87
2024-04-24T01:26:44.014Z,6.84
2024-04-24T01:29:10.937Z,6.88
2024-04-24T01:31:37.779Z,6.73
2024-04-24T01:34:04.512Z,6.92
2024-04-24T01:36:31.266Z,6.92
2024-04-24T01:38:58.154Z,6.58
2024-04-24T01:41:25.040Z,6.87
2024-04-24T01:43:51.839Z,6.62
2024-04-24T01:46:18.588Z,6.75
2024-04-24T01:48:45.524Z,6.78
2024-04-24T01:51:12.298Z,6.90
2024-04-24T01:53:39.066Z,6.95
2024-04-24T01:56:05.958Z,6.94
2024-04-24T01:58:32.684Z,6.60
2024-04-24T02:00:59.388Z,6.40
2024-04-24T02:03:26.158Z,6.22
2024-04-24T02:05:52.850Z,6.59
2024-04-24T02:08:19.782Z,6.63
2024-04-24T02:10:46.503Z,6.61
2024-04-24T02:13:13.252Z,6.59
2024-04-24T02:15:40.102Z,6.78
2024-04-24T02:18:07.467Z,6.61
2024-04-24T02:20:37.321Z,6.69
2024-04-24T02:23:05.571Z,6.49
2024-04-24T02:25:34.977Z,6.54
2024-04-24T02:28:03.191Z,6.87
2024-04-24T02:30:30.581Z,6.78
2024-04-24T02:32:57.536Z,6.52
2024-04-24T02:35:24.340Z,6.69
2024-04-24T02:37:51.097Z,6.69
2024-04-24T02:40:17.854Z,6.79
2024-04-24T02:42:44.564Z,6.69
2024-04-24T02:45:11.267Z,6.58
2024-04-24T02:47:38.063Z,6.35
2024-04-24T02:50:05.067Z,6.50
2024-04-24T02:52:31.815Z,6.57
2024-04-24T02:54:58.505Z,6.44
2024-04-24T02:57:25.217Z,6.65
2024-04-24T02:59:51.920Z,6.87
2024-04-24T03:02:18.677Z,6.89
2024-04-24T03:04:45.504Z,6.72
2024-04-24T03:07:12.280Z,6.66
2024-04-24T03:09:39.153Z,6.41
2024-04-24T03:12:06.181Z,6.63
2024-04-24T03:14:33.029Z,6.66
2024-04-24T03:17:01.241Z,6.47
2024-04-24T03:19:28.018Z,6.52
2024-04-24T03:21:54.774Z,6.54
2024-04-24T03:24:21.501Z,6.69
2024-04-24T03:26:48.212Z,6.43
2024-04-24T03:29:16.348Z,6.37
2024-04-24T03:31:43.648Z,6.19
2024-04-24T03:34:10.375Z,6.24
2024-04-24T03:36:37.119Z,6.45
2024-04-24T03:39:04.652Z,6.23
2024-04-24T03:41:31.346Z,6.35
2024-04-24T03:43:58.099Z,6.26
2024-04-24T03:46:24.831Z,6.48
2024-04-24T03:48:51.552Z,6.45
2024-04-24T03:51:18.918Z,6.40
2024-04-24T03:53:45.668Z,6.25
2024-04-24T03:56:13.477Z,6.29
2024-04-24T03:58:40.192Z,6.23
2024-04-24T04:01:06.946Z,6.45
2024-04-24T04:03:33.685Z,6.53
2024-04-24T04:06:00.370Z,6.58
2024-04-24T04:08:27.256Z,6.41
2024-04-24T04:10:54.003Z,6.31
2024-04-24T04:13:20.813Z,6.19
2024-04-24T04:15:47.493Z,6.29
2024-04-24T04:18:14.817Z,6.00
2024-04-24T04:20:41.576Z,6.16
2024-04-24T04:23:08.428Z,6.15
2024-04-24T04:25:35.170Z,6.40
2024-04-24T04:28:02.652Z,6.42
2024-04-24T04:30:29.353Z,6.35
2024-04-24T04:32:56.121Z,6.14
2024-04-24T04:35:23.065Z,6.27
2024-04-24T04:37:49.880Z,6.44
2024-04-24T04:40:16.639Z,6.59
2024-04-24T04:42:44.208Z,6.63
2024-04-24T04:45:10.964Z,6.99
2024-04-24T04:47:37.843Z,7.19
2024-04-24T04:50:05.016Z,6.86
2024-04-24T04:52:31.771Z,6.85
2024-04-24T04:54:58.542Z,6.92
2024-04-24T04:57:25.269Z,7.04
2024-04-24T04:59:52.056Z,6.43
2024-04-24T05:02:18.837Z,6.65
2024-04-24T05:04:45.630Z,6.57
2024-04-24T05:07:12.502Z,6.39
2024-04-24T05:09:39.180Z,6.47
2024-04-24T05:12:08.145Z,6.26
2024-04-24T05:14:34.937Z,6.47
2024-04-24T05:17:01.760Z,6.22
2024-04-24T05:19:28.568Z,6.29
2024-04-24T05:21:55.270Z,6.13
2024-04-24T05:24:22.119Z,6.15
2024-04-24T05:27:07.537Z,6.22
2024-04-24T05:29:34.289Z,6.17
2024-04-24T05:32:01.051Z,6.17
2024-04-24T05:34:27.805Z,6.86
2024-04-24T05:36:54.491Z,6.92
2024-04-24T05:39:21.283Z,6.46
2024-04-24T05:41:48.028Z,6.75
2024-04-24T05:44:14.889Z,6.87
2024-04-24T05:46:41.651Z,7.01
2024-04-24T05:49:08.338Z,6.39
2024-04-24T05:51:35.098Z,6.42
2024-04-24T05:54:01.801Z,6.38
2024-04-24T05:56:28.573Z,6.44
2024-04-24T05:58:55.362Z,6.47
2024-04-24T06:01:22.065Z,6.26
2024-04-24T06:03:48.828Z,5.98
2024-04-24T06:06:15.572Z,6.15
2024-04-24T06:08:42.298Z,5.86
2024-04-24T06:11:11.178Z,6.07
2024-04-24T06:13:37.989Z,6.24
2024-04-24T06:16:05.132Z,6.24
2024-04-24T06:18:31.933Z,6.09
2024-04-24T06:20:58.736Z,6.07
2024-04-24T06:23:25.563Z,6.27
2024-04-24T06:25:52.728Z,6.20
2024-04-24T06:28:19.714Z,6.25
2024-04-24T06:30:46.460Z,6.10
2024-04-24T06:33:13.305Z,6.29
2024-04-24T06:35:40.104Z,6.52
2024-04-24T06:38:09.408Z,6.44
2024-04-24T06:40:36.262Z,6.48
2024-04-24T06:43:03.868Z,6.39
2024-04-24T06:45:30.671Z,6.46
2024-04-24T06:47:57.430Z,6.55
2024-04-24T06:50:24.274Z,6.67
2024-04-24T06:52:51.015Z,6.80
2024-04-24T06:55:18.446Z,6.68
2024-04-24T06:57:45.161Z,6.23
2024-04-24T07:00:12.216Z,6.39
2024-04-24T07:02:38.956Z,6.19
2024-04-24T07:05:06.081Z,6.38
2024-04-24T07:07:32.835Z,6.47
2024-04-24T07:09:59.532Z,6.63
2024-04-24T07:12:26.242Z,6.64
2024-04-24T07:14:52.940Z,6.83
2024-04-24T07:17:19.695Z,6.81
2024-04-24T07:19:46.409Z,6.75
2024-04-24T07:22:13.826Z,6.77
2024-04-24T07:24:40.693Z,7.01
2024-04-24T07:27:07.419Z,7.36
2024-04-24T07:29:34.188Z,7.44
2024-04-24T07:32:01.024Z,7.54
2024-04-24T07:34:27.857Z,7.66
2024-04-24T07:36:54.551Z,7.77
2024-04-24T07:39:21.285Z,7.56
2024-04-24T07:41:48.004Z,7.63
2024-04-24T07:44:14.979Z,7.81
2024-04-24T07:46:41.696Z,7.28
2024-04-24T07:49:08.411Z,7.10
2024-04-24T07:51:35.135Z,7.28
2024-04-24T07:54:01.884Z,7.54
2024-04-24T07:56:28.710Z,7.63
2024-04-24T07:58:56.239Z,7.57
2024-04-24T08:01:23.497Z,7.60
2024-04-24T08:03:50.355Z,7.61
2024-04-24T08:06:17.114Z,7.69
2024-04-24T08:08:43.879Z,7.59
2024-04-24T08:11:10.836Z,7.93
2024-04-24T08:13:37.666Z,7.80
2024-04-24T08:16:04.773Z,7.76
2024-04-24T08:18:31.483Z,8.00
2024-04-24T08:20:58.176Z,8.18
2024-04-24T08:23:26.969Z,8.22
2024-04-24T08:25:55.130Z,8.52
2024-04-24T08:28:32.616Z,8.57
2024-04-24T08:31:05.428Z,8.42
2024-04-24T08:33:36.455Z,8.20
2024-04-24T08:36:11.518Z,8.30
2024-04-24T08:38:39.217Z,8.31
2024-04-24T08:41:13.614Z,8.35
2024-04-24T08:43:48.111Z,8.57
2024-04-24T08:46:15.012Z,8.61
2024-04-24T08:48:43.081Z,8.01
2024-04-24T08:51:12.646Z,7.88
2024-04-24T08:54:04.201Z,8.35
2024-04-24T08:56:36.021Z,8.27
2024-04-24T08:59:07.942Z,8.18
2024-04-24T09:01:41.109Z,8.03
2024-04-24T09:04:09.650Z,7.91
2024-04-24T09:06:38.311Z,8.32
2024-04-24T09:09:07.034Z,8.00
2024-04-24T09:11:34.790Z,8.48
2024-04-24T09:14:03.594Z,8.21
2024-04-24T09:16:36.196Z,8.65
2024-04-24T09:19:04.616Z,8.77
2024-04-24T09:21:32.800Z,8.58
2024-04-24T09:24:00.108Z,8.69
2024-04-24T09:26:27.934Z,8.77
2024-04-24T09:28:55.020Z,8.78
2024-04-24T09:31:23.420Z,8.81
2024-04-24T09:33:51.019Z,8.47
2024-04-24T09:36:17.838Z,8.69
2024-04-24T09:38:46.357Z,8.81
2024-04-24T09:41:13.559Z,8.60
2024-04-24T09:43:40.622Z,8.28
2024-04-24T09:46:07.703Z,8.27
2024-04-24T09:48:35.531Z,8.49
2024-04-24T09:51:02.379Z,8.30
2024-04-24T09:53:29.214Z,8.21
2024-04-24T09:56:02.863Z,8.18
2024-04-24T09:58:32.693Z,8.14
2024-04-24T10:01:03.101Z,8.56
2024-04-24T10:03:34.891Z,8.87
2024-04-24T10:06:03.832Z,8.72
2024-04-24T10:08:36.387Z,8.64
2024-04-24T10:11:04.634Z,8.82
2024-04-24T10:13:36.325Z,8.89
2024-04-24T10:16:05.625Z,8.91
2024-04-24T10:18:34.653Z,8.92
2024-04-24T10:21:04.491Z,8.84
2024-04-24T10:23:31.923Z,9.04
2024-04-24T10:26:00.226Z,9.01
2024-04-24T10:28:28.500Z,9.39
2024-04-24T10:30:57.947Z,9.14
2024-04-24T10:33:26.086Z,9.50
2024-04-24T10:35:53.343Z,9.45
2024-04-24T10:38:20.124Z,9.37
2024-04-24T10:40:49.601Z,9.28
2024-04-24T10:43:17.069Z,9.58
2024-04-24T10:45:44.547Z,9.63
2024-04-24T10:48:14.957Z,9.81
2024-04-24T10:50:42.810Z,9.74
2024-04-24T10:53:18.770Z,9.75
2024-04-24T10:56:00.051Z,9.74
2024-04-24T10:58:27.001Z,9.88
2024-04-24T11:00:53.843Z,9.62
2024-04-24T11:03:25.776Z,9.71
2024-04-24T11:05:53.097Z,9.62
2024-04-24T11:08:21.073Z,9.31
2024-04-24T11:10:51.792Z,9.40
2024-04-24T11:13:18.645Z,9.24
2024-04-24T11:15:54.385Z,9.76
2024-04-24T11:18:25.788Z,10.02
2024-04-24T11:20:52.705Z,10.22
2024-04-24T11:23:19.468Z,10.44
2024-04-24T11:25:59.299Z,10.03
2024-04-24T11:28:27.895Z,9.81
2024-04-24T11:30:55.176Z,9.76
2024-04-24T11:33:24.096Z,9.97
2024-04-24T11:35:52.532Z,10.14
2024-04-24T11:38:19.531Z,9.74
2024-04-24T11:40:46.462Z,9.76
2024-04-24T11:43:13.271Z,10.04
2024-04-24T11:45:40.688Z,9.93
2024-04-24T11:48:08.129Z,10.19
2024-04-24T11:50:35.738Z,10.15
2024-04-24T11:53:05.280Z,10.37
2024-04-24T11:55:36.448Z,10.31
2024-04-24T11:58:10.747Z,10.10
2024-04-24T12:00:41.793Z,10.26
2024-04-24T12:03:09.482Z,10.57
2024-04-24T12:05:36.588Z,10.45
2024-04-24T12:08:03.632Z,10.89
2024-04-24T12:10:30.513Z,11.60
2024-04-24T12:12:57.290Z,12.01
2024-04-24T12:15:24.052Z,11.84
2024-04-24T12:17:50.813Z,11.17
2024-04-24T12:20:17.820Z,11.46
2024-04-24T12:22:44.674Z,12.26
2024-04-24T12:25:11.431Z,11.43
2024-04-24T12:27:39.115Z,11.55
2024-04-24T12:30:06.692Z,11.21
2024-04-24T12:32:34.109Z,11.29
2024-04-24T12:35:01.081Z,11.68
2024-04-24T12:37:32.384Z,11.41
2024-04-24T12:39:59.229Z,11.41
2024-04-24T12:42:25.969Z,11.10
2024-04-24T12:44:52.674Z,11.23
2024-04-24T12:47:19.507Z,11.61
2024-04-24T12:49:46.270Z,11.95
2024-04-24T12:52:13.053Z,11.90
2024-04-24T12:54:39.751Z,12.43
2024-04-24T12:57:06.582Z,12.63
2024-04-24T12:59:33.380Z,12.24
2024-04-24T13:02:00.759Z,11.82
2024-04-24T13:04:27.783Z,11.94
2024-04-24T13:06:54.522Z,12.10
2024-04-24T13:09:24.444Z,11.89
2024-04-24T13:11:51.636Z,11.40
2024-04-24T13:14:18.576Z,11.23
2024-04-24T13:16:46.471Z,10.94
2024-04-24T13:19:13.402Z,11.56
2024-04-24T13:21:40.282Z,11.48
2024-04-24T13:24:08.924Z,11.55
2024-04-24T13:26:35.854Z,11.04
2024-04-24T13:29:02.912Z,11.47
2024-04-24T13:31:29.655Z,11.03
2024-04-24T13:33:56.445Z,11.42
2024-04-24T13:36:23.355Z,11.85
2024-04-24T13:38:53.234Z,12.39
2024-04-24T13:41:21.688Z,12.11
2024-04-24T13:43:55.760Z,11.89
2024-04-24T13:46:22.727Z,11.67
2024-04-24T13:48:49.905Z,11.98
2024-04-24T13:51:16.910Z,11.87
2024-04-24T13:53:43.893Z,11.82
2024-04-24T13:56:10.689Z,12.07
2024-04-24T13:58:38.387Z,12.01
2024-04-24T14:01:06.218Z,11.79
2024-04-24T14:03:33.097Z,12.01
2024-04-24T14:06:01.343Z,11.96
2024-04-24T14:08:28.321Z,11.99
2024-04-24T14:10:55.115Z,11.86
2024-04-24T14:13:21.851Z,12.24
2024-04-24T14:15:48.644Z,12.24
2024-04-24T14:18:15.363Z,12.13
2024-04-24T14:20:42.148Z,11.95
2024-04-24T14:23:08.923Z,12.02
2024-04-24T14:25:36.203Z,12.00
2024-04-24T14:28:03.102Z,11.82
2024-04-24T14:30:29.910Z,12.08
2024-04-24T14:32:57.479Z,12.13
2024-04-24T14:35:24.348Z,12.01
2024-04-24T14:37:52.272Z,12.21
2024-04-24T14:40:19.106Z,12.64
2024-04-24T14:42:46.666Z,12.61
2024-04-24T14:45:14.434Z,13.17
2024-04-24T14:47:41.623Z,13.16
2024-04-24T14:50:08.574Z,12.58
2024-04-24T14:52:35.372Z,12.03
2024-04-24T14:55:02.213Z,12.15
2024-04-24T14:57:29.199Z,12.31
2024-04-24T14:59:55.921Z,12.11
2024-04-24T15:02:22.893Z,11.90
2024-04-24T15:04:50.726Z,12.38
2024-04-24T15:07:17.683Z,12.11
2024-04-24T15:09:44.453Z,12.20
2024-04-24T15:12:11.490Z,12.24
2024-04-24T15:14:38.366Z,11.92
2024-04-24T15:17:06.127Z,12.30
2024-04-24T15:19:33.253Z,12.58
2024-04-24T15:22:00.258Z,12.77
2024-04-24T15:24:26.957Z,12.48
2024-04-24T15:26:53.725Z,12.18
2024-04-24T15:29:20.503Z,12.37
2024-04-24T15:31:47.234Z,11.77
2024-04-24T15:34:15.535Z,11.84
2024-04-24T15:36:42.263Z,12.03
2024-04-24T15:39:09.828Z,12.30
2024-04-24T15:41:37.211Z,12.13
2024-04-24T15:44:04.089Z,12.40
2024-04-24T15:46:30.841Z,12.41
2024-04-24T15:48:57.597Z,12.53
2024-04-24T15:51:24.387Z,12.73
2024-04-24T15:53:51.231Z,12.73
2024-04-24T15:56:18.214Z,13.10
2024-04-24T15:58:45.127Z,13.28
2024-04-24T16:01:11.902Z,13.51
2024-04-24T16:03:38.730Z,13.29
2024-04-24T16:06:05.843Z,12.81
2024-04-24T16:08:32.745Z,12.49
2024-04-24T16:10:59.579Z,12.59
2024-04-24T16:13:26.707Z,13.31
2024-04-24T16:15:53.461Z,13.41
2024-04-24T16:18:21.630Z,13.43
2024-04-24T16:20:49.306Z,13.04
2024-04-24T16:23:16.066Z,12.93
2024-04-24T16:25:42.816Z,12.74
2024-04-24T16:28:09.945Z,12.69
2024-04-24T16:30:36.673Z,12.37
2024-04-24T16:33:03.606Z,12.45
2024-04-24T16:35:30.399Z,12.37
2024-04-24T16:37:57.115Z,12.19
2024-04-24T16:40:23.818Z,11.96
2024-04-24T16:42:50.545Z,12.19
2024-04-24T16:45:17.383Z,12.05
2024-04-24T16:47:44.231Z,11.81
2024-04-24T16:50:11.826Z,11.79
2024-04-24T16:52:38.570Z,11.89
2024-04-24T16:55:05.691Z,11.23
2024-04-24T16:57:33.012Z,11.45
2024-04-24T16:59:59.789Z,11.75
2024-04-24T17:02:27.684Z,11.76
2024-04-24T17:04:54.445Z,11.92
2024-04-24T17:07:21.469Z,12.19
2024-04-24T17:09:48.505Z,12.47
2024-04-24T17:12:15.224Z,12.37
2024-04-24T17:14:41.952Z,12.14
2024-04-24T17:17:10.716Z,11.67
2024-04-24T17:19:40.054Z,11.71
2024-04-24T17:22:07.308Z,11.77
2024-04-24T17:24:34.100Z,11.81
2024-04-24T17:27:00.833Z,11.82
2024-04-24T17:29:27.590Z,11.95
2024-04-24T17:31:54.405Z,11.58
2024-04-24T17:34:24.402Z,11.19
2024-04-24T17:36:51.214Z,11.12
2024-04-24T17:39:17.902Z,10.60
2024-04-24T17:41:44.647Z,10.93
2024-04-24T17:44:11.518Z,10.91
2024-04-24T17:46:38.237Z,10.58
2024-04-24T17:49:05.171Z,10.76
2024-04-24T17:51:31.935Z,10.88
2024-04-24T17:53:58.890Z,10.82
2024-04-24T17:56:26.837Z,10.83
2024-04-24T17:58:53.569Z,10.70
2024-04-24T18:01:20.392Z,10.49
2024-04-24T18:03:47.170Z,10.26
2024-04-24T18:06:13.921Z,10.37
2024-04-24T18:08:41.490Z,10.04
2024-04-24T18:11:08.979Z,10.10
2024-04-24T18:13:37.241Z,10.39
2024-04-24T18:16:04.275Z,10.41
2024-04-24T18:18:31.222Z,10.42
2024-04-24T18:20:57.970Z,10.40
2024-04-24T18:23:24.820Z,10.38
2024-04-24T18:25:51.554Z,10.43
2024-04-24T18:28:18.478Z,10.53
2024-04-24T18:30:45.174Z,10.61
2024-04-24T18:33:12.114Z,10.42
2024-04-24T18:35:39.065Z,10.56
2024-04-24T18:38:05.883Z,10.10
2024-04-24T18:40:32.774Z,10.00
2024-04-24T18:42:59.620Z,10.21
2024-04-24T18:45:26.451Z,10.36
2024-04-24T18:47:53.396Z,10.39
2024-04-24T18:50:20.380Z,10.40
2024-04-24T18:52:47.212Z,10.27
2024-04-24T18:55:13.951Z,10.35
2024-04-24T18:57:44.207Z,10.41
2024-04-24T19:00:13.416Z,10.10
2024-04-24T19:02:40.462Z,9.99
2024-04-24T19:05:07.561Z,10.04
2024-04-24T19:07:34.340Z,9.93
2024-04-24T19:10:01.127Z,10.19
2024-04-24T19:12:27.879Z,10.05
2024-04-24T19:14:54.689Z,10.21
2024-04-24T19:17:22.389Z,10.23
2024-04-24T19:19:49.396Z,10.02
2024-04-24T19:22:16.103Z,10.12
2024-04-24T19:24:42.809Z,10.01
2024-04-24T19:27:09.524Z,9.86
2024-04-24T19:29:36.568Z,9.76
2024-04-24T19:32:03.410Z,9.90
2024-04-24T19:34:30.300Z,10.03
2024-04-24T19:36:57.022Z,10.36
2024-04-24T19:39:23.737Z,10.11
2024-04-24T19:41:50.419Z,9.94
2024-04-24T19:44:17.183Z,9.86
2024-04-24T19:46:43.951Z,9.88
2024-04-24T19:49:10.643Z,10.06
2024-04-24T19:51:38.285Z,10.02
2024-04-24T19:54:05.042Z,9.83
2024-04-24T19:56:34.102Z,9.83
2024-04-24T19:59:01.921Z,10.43
2024-04-24T20:01:29.988Z,10.40
2024-04-24T20:03:56.996Z,10.03
2024-04-24T20:06:23.772Z,9.92
2024-04-24T20:08:50.687Z,9.79
2024-04-24T20:11:17.472Z,9.62
2024-04-24T20:13:44.232Z,9.69
2024-04-24T20:16:10.992Z,10.01
2024-04-24T20:18:38.851Z,9.73
2024-04-24T20:21:16.603Z,9.65
2024-04-24T20:23:44.186Z,9.61
2024-04-24T20:26:21.402Z,9.53
2024-04-24T20:28:51.458Z,9.58
2024-04-24T20:31:25.483Z,9.57
2024-04-24T20:33:54.167Z,9.59
2024-04-24T20:36:21.261Z,9.47
2024-04-24T20:38:50.778Z,9.52
2024-04-24T20:41:22.103Z,9.68
2024-04-24T20:43:49.534Z,9.71
2024-04-24T20:46:17.194Z,9.82
2024-04-24T20:48:44.528Z,9.83
2024-04-24T20:51:12.347Z,9.87
2024-04-24T20:53:39.230Z,9.71
2024-04-24T20:56:10.252Z,9.58
2024-04-24T20:58:37.837Z,9.48
2024-04-24T21:01:05.877Z,9.59
2024-04-24T21:03:33.338Z,9.50
2024-04-24T21:06:07.248Z,9.47
2024-04-24T21:08:38.557Z,9.46
2024-04-24T21:11:06.411Z,9.46
2024-04-24T21:13:33.257Z,9.36
2024-04-24T21:16:00.278Z,9.21
2024-04-24T21:18:27.224Z,9.24
2024-04-24T21:20:57.703Z,9.16
2024-04-24T21:23:24.504Z,9.10
2024-04-24T21:25:51.438Z,9.07
2024-04-24T21:28:18.175Z,8.83
2024-04-24T21:30:46.690Z,8.77
2024-04-24T21:33:13.832Z,8.82
2024-04-24T21:35:40.718Z,8.65
2024-04-24T21:38:07.454Z,8.73
2024-04-24T21:40:34.140Z,8.67
2024-04-24T21:43:00.848Z,8.68
2024-04-24T21:45:28.481Z,8.67
2024-04-24T21:47:55.671Z,8.72
2024-04-24T21:50:22.571Z,8.58
2024-04-24T21:52:49.377Z,8.38
2024-04-24T21:55:16.143Z,8.44
2024-04-24T21:57:42.890Z,8.40
2024-04-24T22:00:10.105Z,8.34
2024-04-24T22:02:36.936Z,8.29
2024-04-24T22:05:04.360Z,8.26
2024-04-24T22:07:31.155Z,8.36
2024-04-24T22:09:57.885Z,8.40
2024-04-24T22:12:24.718Z,8.42
2024-04-24T22:14:51.424Z,8.46
2024-04-24T22:17:22.110Z,8.33
2024-04-24T22:19:54.281Z,8.32
2024-04-24T22:22:23.289Z,8.37
2024-04-24T22:24:50.521Z,8.35
2024-04-24T22:27:17.281Z,8.52
2024-04-24T22:29:43.985Z,8.55
2024-04-24T22:32:10.792Z,8.59
2024-04-24T22:34:40.374Z,8.48
2024-04-24T22:37:08.572Z,8.47
2024-04-24T22:39:36.102Z,8.40
2024-04-24T22:42:02.944Z,8.39
2024-04-24T22:44:29.835Z,8.40
2024-04-24T22:46:56.597Z,8.39
2024-04-24T22:49:23.308Z,8.41
2024-04-24T22:51:49.972Z,8.41
2024-04-24T22:54:16.766Z,8.29
2024-04-24T22:56:43.563Z,8.18
2024-04-24T22:59:10.513Z,8.24
2024-04-24T23:01:37.277Z,8.24
2024-04-24T23:04:04.568Z,7.93
2024-04-24T23:06:31.271Z,7.98
2024-04-24T23:08:57.979Z,7.98
2024-04-24T23:11:24.795Z,7.89
2024-04-24T23:13:51.531Z,7.71
2024-04-24T23:16:18.275Z,7.47
2024-04-24T23:18:45.110Z,7.07
2024-04-24T23:21:13.354Z,7.09
2024-04-24T23:23:40.370Z,7.09
2024-04-24T23:26:07.129Z,7.01
2024-04-24T23:28:33.875Z,6.75
2024-04-24T23:31:00.571Z,6.72
2024-04-24T23:33:27.361Z,6.53
2024-04-24T23:35:54.224Z,6.53
2024-04-24T23:38:21.047Z,6.40
2024-04-24T23:40:47.770Z,6.54
2024-04-24T23:43:14.538Z,6.54
2024-04-24T23:45:41.249Z,6.29
2024-04-24T23:48:08.274Z,6.33
2024-04-24T23:50:35.088Z,6.45
2024-04-24T23:53:01.832Z,6.14
2024-04-24T23:55:28.520Z,6.27
2024-04-24T23:57:55.244Z,6.27
